createdAt,value
2019-02-09T00:00:48.097Z,5.58
2019-02-09T00:01:48.055Z,5.51
2019-02-09T00:02:48.035Z,5.53
2019-02-09T00:03:48.025Z,5.49
2019-02-09T00:04:48.012Z,5.54
2019-02-09T00:05:48.030Z,5.60
2019-02-09T00:06:48.004Z,5.60
2019-02-09T00:07:47.983Z,5.56
2019-02-09T00:08:47.979Z,5.58
2019-02-09T00:09:47.963Z,5.53
2019-02-09T00:10:47.977Z,5.61
2019-02-09T00:11:47.940Z,5.63
2019-02-09T00:12:47.931Z,5.71
2019-02-09T00:13:47.921Z,5.65
2019-02-09T00:14:47.910Z,5.67
2019-02-09T00:15:47.930Z,5.65
2019-02-09T00:16:47.889Z,5.65
2019-02-09T00:17:47.888Z,5.63
2019-02-09T00:18:47.871Z,5.67
2019-02-09T00:19:47.856Z,5.74
2019-02-09T00:20:47.869Z,5.75
2019-02-09T00:21:47.837Z,5.76
2019-02-09T00:22:47.827Z,5.76
2019-02-09T00:23:47.815Z,5.72
2019-02-09T00:24:47.804Z,5.75
2019-02-09T00:25:47.821Z,5.76
2019-02-09T00:26:47.784Z,5.72
2019-02-09T00:27:47.770Z,5.76
2019-02-09T00:28:47.762Z,5.74
2019-02-09T00:29:47.753Z,5.75
2019-02-09T00:30:47.764Z,5.74
2019-02-09T00:31:47.730Z,5.72
2019-02-09T00:32:47.722Z,5.67
2019-02-09T00:33:47.709Z,5.72
2019-02-09T00:34:47.715Z,5.72
2019-02-09T00:35:47.765Z,5.76
2019-02-09T00:36:47.682Z,5.76
2019-02-09T00:37:47.667Z,5.83
2019-02-09T00:38:47.660Z,5.72
2019-02-09T00:39:47.651Z,5.74
2019-02-09T00:40:47.664Z,5.79
2019-02-09T00:41:47.625Z,5.79
2019-02-09T00:42:47.666Z,5.86
2019-02-09T00:43:47.624Z,5.83
2019-02-09T00:44:47.606Z,5.89
2019-02-09T00:45:47.610Z,5.93
2019-02-09T00:46:47.571Z,5.89
2019-02-09T00:47:47.563Z,5.83
2019-02-09T00:48:47.550Z,5.99
2019-02-09T00:49:47.545Z,5.89
2019-02-09T00:50:47.574Z,5.94
2019-02-09T00:51:47.521Z,5.89
2019-02-09T00:52:47.510Z,5.97
2019-02-09T00:53:48.152Z,6.09
2019-02-09T00:54:47.489Z,6.00
2019-02-09T00:55:47.477Z,6.03
2019-02-09T00:56:47.508Z,6.01
2019-02-09T00:57:47.456Z,5.97
2019-02-09T00:58:47.525Z,5.96
2019-02-09T00:59:54.017Z,5.99
2019-02-09T01:00:48.464Z,6.00
2019-02-09T01:01:47.417Z,6.06
2019-02-09T01:02:47.437Z,6.08
2019-02-09T01:03:47.393Z,6.00
2019-02-09T01:04:47.396Z,6.04
2019-02-09T01:05:47.369Z,6.00
2019-02-09T01:06:47.359Z,6.03
2019-02-09T01:07:47.354Z,5.97
2019-02-09T01:08:47.366Z,6.00
2019-02-09T01:09:47.328Z,6.00
2019-02-09T01:10:47.322Z,5.96
2019-02-09T01:11:47.306Z,6.04
2019-02-09T01:12:47.294Z,6.01
2019-02-09T01:13:47.320Z,5.94
2019-02-09T01:14:47.272Z,5.90
2019-02-09T01:15:47.393Z,5.89
2019-02-09T01:16:47.248Z,5.89
2019-02-09T01:17:47.240Z,5.96
2019-02-09T01:18:47.229Z,5.91
2019-02-09T01:19:47.255Z,5.96
2019-02-09T01:20:47.208Z,5.96
2019-02-09T01:21:47.196Z,5.93
2019-02-09T01:22:47.187Z,5.94
2019-02-09T01:23:47.173Z,5.96
2019-02-09T01:24:47.162Z,5.83
2019-02-09T01:25:47.178Z,5.83
2019-02-09T01:26:47.205Z,5.89
2019-02-09T01:27:47.135Z,5.85
2019-02-09T01:28:47.123Z,5.82
2019-02-09T01:29:47.112Z,5.78
2019-02-09T01:30:47.132Z,5.78
2019-02-09T01:31:47.086Z,5.83
2019-02-09T01:32:47.080Z,5.81
2019-02-09T01:33:47.067Z,5.83
2019-02-09T01:34:47.055Z,5.71
2019-02-09T01:35:47.068Z,5.67
2019-02-09T01:36:47.036Z,5.75
2019-02-09T01:37:47.022Z,5.68
2019-02-09T01:38:47.012Z,5.74
2019-02-09T01:39:47.000Z,5.74
2019-02-09T01:40:47.020Z,5.71
2019-02-09T01:41:47.027Z,5.74
2019-02-09T01:42:46.973Z,5.75
2019-02-09T01:43:46.958Z,5.75
2019-02-09T01:44:46.947Z,5.76
2019-02-09T01:45:46.962Z,5.74
2019-02-09T01:46:46.929Z,5.74
2019-02-09T01:47:46.913Z,5.75
2019-02-09T01:48:46.903Z,5.76
2019-02-09T01:49:46.892Z,5.74
2019-02-09T01:50:46.907Z,5.75
2019-02-09T01:51:46.875Z,5.74
2019-02-09T01:52:46.860Z,5.71
2019-02-09T01:53:46.854Z,5.74
2019-02-09T01:54:46.841Z,5.68
2019-02-09T01:55:46.855Z,5.67
2019-02-09T01:56:46.818Z,5.71
2019-02-09T01:57:46.808Z,5.65
2019-02-09T01:58:46.799Z,5.65
2019-02-09T01:59:46.793Z,5.71
2019-02-09T02:00:46.800Z,5.63
2019-02-09T02:01:46.767Z,5.67
2019-02-09T02:02:46.756Z,5.64
2019-02-09T02:03:46.748Z,5.56
2019-02-09T02:04:46.741Z,5.61
2019-02-09T02:05:46.749Z,5.49
2019-02-09T02:06:46.714Z,5.57
2019-02-09T02:07:46.703Z,5.56
2019-02-09T02:08:46.693Z,5.61
2019-02-09T02:09:46.684Z,5.54
2019-02-09T02:10:46.698Z,5.57
2019-02-09T02:11:46.660Z,5.48
2019-02-09T02:12:46.651Z,5.56
2019-02-09T02:13:46.641Z,5.57
2019-02-09T02:14:46.631Z,5.60
2019-02-09T02:15:46.646Z,5.51
2019-02-09T02:16:46.611Z,5.56
2019-02-09T02:17:46.603Z,5.53
2019-02-09T02:18:46.591Z,5.56
2019-02-09T02:19:46.580Z,5.54
2019-02-09T02:20:46.593Z,5.57
2019-02-09T02:21:46.558Z,5.58
2019-02-09T02:22:46.547Z,5.51
2019-02-09T02:23:46.543Z,5.60
2019-02-09T02:24:46.528Z,5.49
2019-02-09T02:25:46.539Z,5.58
2019-02-09T02:26:46.505Z,5.60
2019-02-09T02:27:46.497Z,5.57
2019-02-09T02:28:46.487Z,5.60
2019-02-09T02:29:46.472Z,5.57
2019-02-09T02:30:46.493Z,5.54
2019-02-09T02:31:46.452Z,5.49
2019-02-09T02:32:46.447Z,5.57
2019-02-09T02:33:46.431Z,5.57
2019-02-09T02:34:46.424Z,5.49
2019-02-09T02:35:46.438Z,5.54
2019-02-09T02:36:46.400Z,5.53
2019-02-09T02:37:46.392Z,5.57
2019-02-09T02:38:46.387Z,5.63
2019-02-09T02:39:46.368Z,5.54
2019-02-09T02:40:46.383Z,5.57
2019-02-09T02:41:46.348Z,5.49
2019-02-09T02:42:46.338Z,5.51
2019-02-09T02:43:46.327Z,5.57
2019-02-09T02:44:46.318Z,5.46
2019-02-09T02:45:46.340Z,5.56
2019-02-09T02:46:46.295Z,5.53
2019-02-09T02:47:46.288Z,5.58
2019-02-09T02:48:46.276Z,5.58
2019-02-09T02:49:46.266Z,5.64
2019-02-09T02:50:46.255Z,5.53
2019-02-09T02:51:46.278Z,5.54
2019-02-09T02:52:46.234Z,5.57
2019-02-09T02:53:46.221Z,5.58
2019-02-09T02:54:46.210Z,5.58
2019-02-09T02:55:46.200Z,5.58
2019-02-09T02:56:46.192Z,5.58
2019-02-09T02:57:46.202Z,5.64
2019-02-09T02:58:46.168Z,5.67
2019-02-09T02:59:46.158Z,5.65
2019-02-09T03:00:46.149Z,5.76
2019-02-09T03:01:46.137Z,5.76
2019-02-09T03:02:46.164Z,5.74
2019-02-09T03:03:46.115Z,5.74
2019-02-09T03:04:46.113Z,5.71
2019-02-09T03:05:46.095Z,5.75
2019-02-09T03:06:47.820Z,5.72
2019-02-09T03:07:46.076Z,5.68
2019-02-09T03:08:46.098Z,5.68
2019-02-09T03:09:46.052Z,5.64
2019-02-09T03:10:46.042Z,5.78
2019-02-09T03:11:46.033Z,5.74
2019-02-09T03:12:46.022Z,5.71
2019-02-09T03:13:46.010Z,5.75
2019-02-09T03:14:46.025Z,5.78
2019-02-09T03:15:45.990Z,5.86
2019-02-09T03:16:45.982Z,5.82
2019-02-09T03:17:45.967Z,5.83
2019-02-09T03:18:45.957Z,5.94
2019-02-09T03:19:45.984Z,5.79
2019-02-09T03:20:45.936Z,5.94
2019-02-09T03:21:45.926Z,5.96
2019-02-09T03:22:45.917Z,5.93
2019-02-09T03:23:45.912Z,6.06
2019-02-09T03:24:45.895Z,6.00
2019-02-09T03:25:45.909Z,6.08
2019-02-09T03:26:45.878Z,6.11
2019-02-09T03:27:45.873Z,6.09
2019-02-09T03:28:45.854Z,6.09
2019-02-09T03:29:45.845Z,6.12
2019-02-09T03:30:48.658Z,6.11
2019-02-09T03:31:45.824Z,6.18
2019-02-09T03:32:45.816Z,6.09
2019-02-09T03:33:45.800Z,6.17
2019-02-09T03:34:45.790Z,6.19
2019-02-09T03:35:45.804Z,6.22
2019-02-09T03:36:45.767Z,6.30
2019-02-09T03:37:45.758Z,6.37
2019-02-09T03:38:45.747Z,6.34
2019-02-09T03:39:45.736Z,6.31
2019-02-09T03:40:45.749Z,6.31
2019-02-09T03:41:45.714Z,6.27
2019-02-09T03:42:45.707Z,6.27
2019-02-09T03:43:45.699Z,6.36
2019-02-09T03:44:45.682Z,6.37
2019-02-09T03:45:45.698Z,6.51
2019-02-09T03:46:45.660Z,6.38
2019-02-09T03:47:45.653Z,6.46
2019-02-09T03:48:45.638Z,6.40
2019-02-09T03:49:45.627Z,6.49
2019-02-09T03:50:45.641Z,6.43
2019-02-09T03:51:45.604Z,6.48
2019-02-09T03:52:45.593Z,6.51
2019-02-09T03:53:45.643Z,6.51
2019-02-09T03:54:45.613Z,6.49
2019-02-09T03:55:45.588Z,6.48
2019-02-09T03:56:45.554Z,6.52
2019-02-09T03:57:45.554Z,6.51
2019-02-09T03:58:45.530Z,6.48
2019-02-09T03:59:45.530Z,6.51
2019-02-09T04:00:45.532Z,6.54
2019-02-09T04:01:45.620Z,6.62
2019-02-09T04:02:45.496Z,6.56
2019-02-09T04:03:45.477Z,6.66
2019-02-09T04:04:45.463Z,6.67
2019-02-09T04:05:45.479Z,6.64
2019-02-09T04:06:45.442Z,6.61
2019-02-09T04:07:45.431Z,6.62
2019-02-09T04:08:45.421Z,6.67
2019-02-09T04:09:45.411Z,6.61
2019-02-09T04:10:45.425Z,6.64
2019-02-09T04:11:45.388Z,6.62
2019-02-09T04:12:45.377Z,6.62
2019-02-09T04:13:45.368Z,6.70
2019-02-09T04:14:45.363Z,6.67
2019-02-09T04:15:45.384Z,6.67
2019-02-09T04:16:45.334Z,6.62
2019-02-09T04:17:45.328Z,6.71
2019-02-09T04:18:45.311Z,6.69
2019-02-09T04:19:45.303Z,6.76
2019-02-09T04:20:45.296Z,6.73
2019-02-09T04:21:45.314Z,6.76
2019-02-09T04:22:45.269Z,6.70
2019-02-09T04:23:45.256Z,6.74
2019-02-09T04:24:45.249Z,6.70
2019-02-09T04:25:45.237Z,6.70
2019-02-09T04:26:45.226Z,6.73
2019-02-09T04:27:45.251Z,6.70
2019-02-09T04:28:45.203Z,6.70
2019-02-09T04:29:45.193Z,6.76
2019-02-09T04:30:45.185Z,6.85
2019-02-09T04:31:45.169Z,6.74
2019-02-09T04:32:45.163Z,6.77
2019-02-09T04:33:45.188Z,6.77
2019-02-09T04:34:45.135Z,6.73
2019-02-09T04:35:45.125Z,6.80
2019-02-09T04:36:45.115Z,6.80
2019-02-09T04:37:45.104Z,6.76
2019-02-09T04:38:45.097Z,6.77
2019-02-09T04:39:45.130Z,6.73
2019-02-09T04:40:45.092Z,6.85
2019-02-09T04:41:45.060Z,6.85
2019-02-09T04:42:45.052Z,6.87
2019-02-09T04:43:45.037Z,6.80
2019-02-09T04:44:45.029Z,6.84
2019-02-09T04:45:45.040Z,6.80
2019-02-09T04:46:45.007Z,6.81
2019-02-09T04:47:44.993Z,6.92
2019-02-09T04:48:44.982Z,6.89
2019-02-09T04:49:44.995Z,6.80
2019-02-09T04:50:44.986Z,6.88
2019-02-09T04:51:44.949Z,6.87
2019-02-09T04:52:44.941Z,6.97
2019-02-09T04:53:44.928Z,6.92
2019-02-09T04:54:44.920Z,6.98
2019-02-09T04:55:44.933Z,6.95
2019-02-09T04:56:44.897Z,6.97
2019-02-09T04:57:44.885Z,6.98
2019-02-09T04:58:44.873Z,6.92
2019-02-09T04:59:44.863Z,6.91
2019-02-09T05:00:44.876Z,6.95
2019-02-09T05:01:44.840Z,6.89
2019-02-09T05:02:44.829Z,6.91
2019-02-09T05:03:44.820Z,6.92
2019-02-09T05:04:44.808Z,6.95
2019-02-09T05:05:44.823Z,6.88
2019-02-09T05:06:44.794Z,6.98
2019-02-09T05:07:44.777Z,6.95
2019-02-09T05:08:44.764Z,6.94
2019-02-09T05:09:44.752Z,6.99
2019-02-09T05:10:44.774Z,7.02
2019-02-09T05:11:44.734Z,7.07
2019-02-09T05:12:44.724Z,7.02
2019-02-09T05:13:44.711Z,6.99
2019-02-09T05:14:44.700Z,6.99
2019-02-09T05:15:44.718Z,6.97
2019-02-09T05:16:44.733Z,6.88
2019-02-09T05:17:44.668Z,6.95
2019-02-09T05:18:44.656Z,7.03
2019-02-09T05:19:44.646Z,7.02
2019-02-09T05:20:44.659Z,7.03
2019-02-09T05:21:44.629Z,6.97
2019-02-09T05:22:44.623Z,7.02
2019-02-09T05:23:44.605Z,7.03
2019-02-09T05:24:44.592Z,6.92
2019-02-09T05:25:44.609Z,7.05
2019-02-09T05:26:44.572Z,6.99
2019-02-09T05:27:44.563Z,7.10
2019-02-09T05:28:44.552Z,7.07
2019-02-09T05:29:44.542Z,7.05
2019-02-09T05:30:44.557Z,6.99
2019-02-09T05:31:44.518Z,6.94
2019-02-09T05:32:44.511Z,7.02
2019-02-09T05:33:44.500Z,7.03
2019-02-09T05:34:44.489Z,7.06
2019-02-09T05:35:44.504Z,7.07
2019-02-09T05:36:44.465Z,7.05
2019-02-09T05:37:44.454Z,7.05
2019-02-09T05:38:44.447Z,7.12
2019-02-09T05:39:44.437Z,7.05
2019-02-09T05:40:44.452Z,7.06
2019-02-09T05:41:44.414Z,7.06
2019-02-09T05:42:44.405Z,7.09
2019-02-09T05:43:44.393Z,7.15
2019-02-09T05:44:44.381Z,7.09
2019-02-09T05:45:44.410Z,7.09
2019-02-09T05:46:44.365Z,7.10
2019-02-09T05:47:44.352Z,7.09
2019-02-09T05:48:44.342Z,7.10
2019-02-09T05:49:44.332Z,7.09
2019-02-09T05:50:44.347Z,7.12
2019-02-09T05:51:44.309Z,7.15
2019-02-09T05:52:44.308Z,7.10
2019-02-09T05:53:44.292Z,7.05
2019-02-09T05:54:44.281Z,7.06
2019-02-09T05:55:44.293Z,7.10
2019-02-09T05:56:44.283Z,7.10
2019-02-09T05:57:44.245Z,7.20
2019-02-09T05:58:44.235Z,7.13
2019-02-09T05:59:44.224Z,7.09
2019-02-09T06:00:44.238Z,7.07
2019-02-09T06:01:44.201Z,7.09
2019-02-09T06:02:44.198Z,7.09
2019-02-09T06:03:44.181Z,7.12
2019-02-09T06:04:44.171Z,7.12
2019-02-09T06:05:44.225Z,7.09
2019-02-09T06:06:44.151Z,7.10
2019-02-09T06:07:44.139Z,7.09
2019-02-09T06:08:44.131Z,7.06
2019-02-09T06:09:44.119Z,6.99
2019-02-09T06:10:44.134Z,6.94
2019-02-09T06:11:44.101Z,6.95
2019-02-09T06:12:44.087Z,7.07
2019-02-09T06:13:44.077Z,6.92
2019-02-09T06:14:44.067Z,6.97
2019-02-09T06:15:44.083Z,6.97
2019-02-09T06:16:44.046Z,6.91
2019-02-09T06:17:44.040Z,6.87
2019-02-09T06:18:44.025Z,6.79
2019-02-09T06:19:44.013Z,6.77
2019-02-09T06:20:44.031Z,6.73
2019-02-09T06:21:43.996Z,6.70
2019-02-09T06:22:43.984Z,6.69
2019-02-09T06:23:43.972Z,6.67
2019-02-09T06:24:43.961Z,6.64
2019-02-09T06:25:43.975Z,6.58
2019-02-09T06:26:43.941Z,6.49
2019-02-09T06:27:43.929Z,6.49
2019-02-09T06:28:43.920Z,6.54
2019-02-09T06:29:43.908Z,6.51
2019-02-09T06:30:43.922Z,6.48
2019-02-09T06:31:43.888Z,6.43
2019-02-09T06:32:43.877Z,6.43
2019-02-09T06:33:43.868Z,6.37
2019-02-09T06:34:43.857Z,6.48
2019-02-09T06:35:43.868Z,6.37
2019-02-09T06:36:43.835Z,6.43
2019-02-09T06:37:43.828Z,6.37
2019-02-09T06:38:43.812Z,6.33
2019-02-09T06:39:43.807Z,6.30
2019-02-09T06:40:43.821Z,6.27
2019-02-09T06:41:43.784Z,6.28
2019-02-09T06:42:43.773Z,6.28
2019-02-09T06:43:43.759Z,6.30
2019-02-09T06:44:43.749Z,6.28
2019-02-09T06:45:43.761Z,6.34
2019-02-09T06:46:43.727Z,6.28
2019-02-09T06:47:43.717Z,6.31
2019-02-09T06:48:43.705Z,6.28
2019-02-09T06:49:43.695Z,6.30
2019-02-09T06:50:43.709Z,6.27
2019-02-09T06:51:43.673Z,6.34
2019-02-09T06:52:43.662Z,6.30
2019-02-09T06:53:43.651Z,6.28
2019-02-09T06:54:43.639Z,6.27
2019-02-09T06:55:43.655Z,6.40
2019-02-09T06:56:43.621Z,6.28
2019-02-09T06:57:43.608Z,6.27
2019-02-09T06:58:43.598Z,6.36
2019-02-09T06:59:43.588Z,6.30
2019-02-09T07:00:43.601Z,6.28
2019-02-09T07:01:48.598Z,6.36
2019-02-09T07:02:44.556Z,6.38
2019-02-09T07:03:43.545Z,6.36
2019-02-09T07:04:43.535Z,6.37
2019-02-09T07:05:43.545Z,6.28
2019-02-09T07:06:43.510Z,6.21
2019-02-09T07:07:43.500Z,6.25
2019-02-09T07:08:43.489Z,6.36
2019-02-09T07:09:43.477Z,6.31
2019-02-09T07:10:43.493Z,6.22
2019-02-09T07:11:43.455Z,6.30
2019-02-09T07:12:43.444Z,6.28
2019-02-09T07:13:43.436Z,6.25
2019-02-09T07:14:43.424Z,6.25
2019-02-09T07:15:43.444Z,6.30
2019-02-09T07:16:43.401Z,6.30
2019-02-09T07:17:43.389Z,6.30
2019-02-09T07:18:43.379Z,6.27
2019-02-09T07:19:43.371Z,6.37
2019-02-09T07:20:43.382Z,6.28
2019-02-09T07:21:43.350Z,6.31
2019-02-09T07:22:43.336Z,6.22
2019-02-09T07:23:43.325Z,6.30
2019-02-09T07:24:43.313Z,6.38
2019-02-09T07:25:43.330Z,6.40
2019-02-09T07:26:43.325Z,6.30
2019-02-09T07:27:43.283Z,6.30
2019-02-09T07:28:43.271Z,6.40
2019-02-09T07:29:43.260Z,6.40
2019-02-09T07:30:43.275Z,6.33
2019-02-09T07:31:43.240Z,6.28
2019-02-09T07:32:43.227Z,6.28
2019-02-09T07:33:43.219Z,6.30
2019-02-09T07:34:43.208Z,6.27
2019-02-09T07:35:43.878Z,6.34
2019-02-09T07:36:43.189Z,6.30
2019-02-09T07:37:43.184Z,6.31
2019-02-09T07:38:43.165Z,6.33
2019-02-09T07:39:43.153Z,6.36
2019-02-09T07:40:43.171Z,6.33
2019-02-09T07:41:43.131Z,6.30
2019-02-09T07:42:43.119Z,6.33
2019-02-09T07:43:43.109Z,6.38
2019-02-09T07:44:43.099Z,6.25
2019-02-09T07:45:43.113Z,6.25
2019-02-09T07:46:43.076Z,6.33
2019-02-09T07:47:43.065Z,6.28
2019-02-09T07:48:43.062Z,6.34
2019-02-09T07:49:43.047Z,6.27
2019-02-09T07:50:43.058Z,6.28
2019-02-09T07:51:43.021Z,6.27
2019-02-09T07:52:43.012Z,6.27
2019-02-09T07:53:43.000Z,6.34
2019-02-09T07:54:43.043Z,6.19
2019-02-09T07:55:43.004Z,6.28
2019-02-09T07:56:42.967Z,6.31
2019-02-09T07:57:42.955Z,6.28
2019-02-09T07:58:42.948Z,6.31
2019-02-09T07:59:42.934Z,6.27
2019-02-09T08:00:42.948Z,6.33
2019-02-09T08:01:42.914Z,6.34
2019-02-09T08:02:42.902Z,6.30
2019-02-09T08:03:42.919Z,6.33
2019-02-09T08:04:42.881Z,6.28
2019-02-09T08:05:42.896Z,6.33
2019-02-09T08:06:42.860Z,6.40
2019-02-09T08:07:42.848Z,6.25
2019-02-09T08:08:42.837Z,6.43
2019-02-09T08:09:42.831Z,6.36
2019-02-09T08:10:42.849Z,6.31
2019-02-09T08:11:42.809Z,6.30
2019-02-09T08:12:42.796Z,6.31
2019-02-09T08:13:42.782Z,6.30
2019-02-09T08:14:42.774Z,6.27
2019-02-09T08:15:42.787Z,6.19
2019-02-09T08:16:42.749Z,6.25
2019-02-09T08:17:42.739Z,6.22
2019-02-09T08:18:42.730Z,6.33
2019-02-09T08:19:42.719Z,6.28
2019-02-09T08:20:42.733Z,6.27
2019-02-09T08:21:42.697Z,6.33
2019-02-09T08:22:42.685Z,6.27
2019-02-09T08:23:42.687Z,6.36
2019-02-09T08:24:42.664Z,6.22
2019-02-09T08:25:42.680Z,6.38
2019-02-09T08:26:42.643Z,6.40
2019-02-09T08:27:42.632Z,6.43
2019-02-09T08:28:42.622Z,6.44
2019-02-09T08:29:42.611Z,6.44
2019-02-09T08:30:42.625Z,6.46
2019-02-09T08:31:42.587Z,6.49
2019-02-09T08:32:42.579Z,6.49
2019-02-09T08:33:42.566Z,6.54
2019-02-09T08:34:42.559Z,6.61
2019-02-09T08:35:42.589Z,6.64
2019-02-09T08:36:42.534Z,6.66
2019-02-09T08:37:42.522Z,6.69
2019-02-09T08:38:42.511Z,6.64
2019-02-09T08:39:42.501Z,6.74
2019-02-09T08:40:42.518Z,6.71
2019-02-09T08:41:42.484Z,6.74
2019-02-09T08:42:42.469Z,6.77
2019-02-09T08:43:42.458Z,6.76
2019-02-09T08:44:42.452Z,6.67
2019-02-09T08:45:42.463Z,6.74
2019-02-09T08:46:42.428Z,6.81
2019-02-09T08:47:42.414Z,6.73
2019-02-09T08:48:42.406Z,6.77
2019-02-09T08:49:42.397Z,6.81
2019-02-09T08:50:42.412Z,6.80
2019-02-09T08:51:42.375Z,6.85
2019-02-09T08:52:42.377Z,6.84
2019-02-09T08:53:42.350Z,6.91
2019-02-09T08:54:42.342Z,6.94
2019-02-09T08:55:42.357Z,6.95
2019-02-09T08:56:42.322Z,7.06
2019-02-09T08:57:42.307Z,6.88
2019-02-09T08:58:42.296Z,7.03
2019-02-09T08:59:42.286Z,7.05
2019-02-09T09:00:42.301Z,7.09
2019-02-09T09:01:42.265Z,7.10
2019-02-09T09:02:42.254Z,7.13
2019-02-09T09:03:42.247Z,7.20
2019-02-09T09:04:42.234Z,7.32
2019-02-09T09:05:42.254Z,7.39
2019-02-09T09:06:42.213Z,7.46
2019-02-09T09:07:42.207Z,7.45
2019-02-09T09:08:42.197Z,7.48
2019-02-09T09:09:43.515Z,7.45
2019-02-09T09:10:42.194Z,7.60
2019-02-09T09:11:42.161Z,7.50
2019-02-09T09:12:42.150Z,7.58
2019-02-09T09:13:42.144Z,7.60
2019-02-09T09:14:42.134Z,7.68
2019-02-09T09:15:42.143Z,7.69
2019-02-09T09:16:42.107Z,7.72
2019-02-09T09:17:42.097Z,7.82
2019-02-09T09:18:42.087Z,7.80
2019-02-09T09:19:42.073Z,7.87
2019-02-09T09:20:42.094Z,7.97
2019-02-09T09:21:42.055Z,7.97
2019-02-09T09:22:42.043Z,7.97
2019-02-09T09:23:42.035Z,8.07
2019-02-09T09:24:42.022Z,8.07
2019-02-09T09:25:42.057Z,8.07
2019-02-09T09:26:41.999Z,8.20
2019-02-09T09:27:41.988Z,8.16
2019-02-09T09:28:41.977Z,8.20
2019-02-09T09:29:41.969Z,8.23
2019-02-09T09:30:41.983Z,8.36
2019-02-09T09:31:41.946Z,8.30
2019-02-09T09:32:41.933Z,8.29
2019-02-09T09:33:41.923Z,8.41
2019-02-09T09:34:41.914Z,8.44
2019-02-09T09:35:41.925Z,8.43
2019-02-09T09:36:41.891Z,8.40
2019-02-09T09:37:41.928Z,8.56
2019-02-09T09:38:41.866Z,8.62
2019-02-09T09:39:41.879Z,8.65
2019-02-09T09:40:41.892Z,8.68
2019-02-09T09:41:41.852Z,8.65
2019-02-09T09:42:41.825Z,8.71
2019-02-09T09:43:41.814Z,8.65
2019-02-09T09:44:41.804Z,8.65
2019-02-09T09:45:41.820Z,8.62
2019-02-09T09:46:41.781Z,8.62
2019-02-09T09:47:41.772Z,8.62
2019-02-09T09:48:41.761Z,8.65
2019-02-09T09:49:41.750Z,8.62
2019-02-09T09:50:41.765Z,8.65
2019-02-09T09:51:41.731Z,8.62
2019-02-09T09:52:41.719Z,8.62
2019-02-09T09:53:41.714Z,8.68
2019-02-09T09:54:41.697Z,8.68
2019-02-09T09:55:41.714Z,8.77
2019-02-09T09:56:41.677Z,8.89
2019-02-09T09:57:41.670Z,8.81
2019-02-09T09:58:41.652Z,8.89
2019-02-09T09:59:41.641Z,8.92
2019-02-09T10:00:41.664Z,8.73
2019-02-09T10:01:41.622Z,8.76
2019-02-09T10:02:41.614Z,8.76
2019-02-09T10:03:41.600Z,8.74
2019-02-09T10:04:41.593Z,8.73
2019-02-09T10:05:41.601Z,8.74
2019-02-09T10:06:41.568Z,8.76
2019-02-09T10:07:41.561Z,8.87
2019-02-09T10:08:41.548Z,8.94
2019-02-09T10:09:41.537Z,9.01
2019-02-09T10:10:41.548Z,8.96
2019-02-09T10:11:41.515Z,8.98
2019-02-09T10:12:41.501Z,8.99
2019-02-09T10:13:41.492Z,9.05
2019-02-09T10:14:41.483Z,9.04
2019-02-09T10:15:41.496Z,9.13
2019-02-09T10:16:41.460Z,9.26
2019-02-09T10:17:41.452Z,9.20
2019-02-09T10:18:41.437Z,9.24
2019-02-09T10:19:41.427Z,9.35
2019-02-09T10:20:41.440Z,9.39
2019-02-09T10:21:41.405Z,9.39
2019-02-09T10:22:41.395Z,9.42
2019-02-09T10:23:41.385Z,9.46
2019-02-09T10:24:41.370Z,9.46
2019-02-09T10:25:41.386Z,9.51
2019-02-09T10:26:41.351Z,9.54
2019-02-09T10:27:41.339Z,9.61
2019-02-09T10:28:41.329Z,9.66
2019-02-09T10:29:41.317Z,9.76
2019-02-09T10:30:41.382Z,9.81
2019-02-09T10:31:41.300Z,9.90
2019-02-09T10:32:44.541Z,9.83
2019-02-09T10:33:41.275Z,9.96
2019-02-09T10:34:41.265Z,9.94
2019-02-09T10:35:41.281Z,9.99
2019-02-09T10:36:41.243Z,10.07
2019-02-09T10:37:41.234Z,9.99
2019-02-09T10:38:41.222Z,10.09
2019-02-09T10:39:41.235Z,10.20
2019-02-09T10:40:41.227Z,10.32
2019-02-09T10:41:41.190Z,10.30
2019-02-09T10:42:41.181Z,10.27
2019-02-09T10:43:41.169Z,10.34
2019-02-09T10:44:41.158Z,10.41
2019-02-09T10:45:41.293Z,10.42
2019-02-09T10:46:41.137Z,10.55
2019-02-09T10:47:41.128Z,10.63
2019-02-09T10:48:41.115Z,10.63
2019-02-09T10:49:41.103Z,10.78
2019-02-09T10:50:41.119Z,10.67
2019-02-09T10:51:41.084Z,10.86
2019-02-09T10:52:41.070Z,10.85
2019-02-09T10:53:41.065Z,10.82
2019-02-09T10:54:41.058Z,10.92
2019-02-09T10:55:41.063Z,10.88
2019-02-09T10:56:41.028Z,10.96
2019-02-09T10:57:41.016Z,10.82
2019-02-09T10:58:41.007Z,11.09
2019-02-09T10:59:40.996Z,11.07
2019-02-09T11:00:41.014Z,11.10
2019-02-09T11:01:40.975Z,11.19
2019-02-09T11:02:40.971Z,11.27
2019-02-09T11:03:40.951Z,11.62
2019-02-09T11:04:40.940Z,11.58
2019-02-09T11:05:40.956Z,12.07
2019-02-09T11:06:40.921Z,12.49
2019-02-09T11:07:40.911Z,12.96
2019-02-09T11:08:40.899Z,12.77
2019-02-09T11:09:40.886Z,12.46
2019-02-09T11:10:40.907Z,12.56
2019-02-09T11:11:40.873Z,12.32
2019-02-09T11:12:40.854Z,12.10
2019-02-09T11:13:40.849Z,12.02
2019-02-09T11:14:40.832Z,11.94
2019-02-09T11:15:40.850Z,11.82
2019-02-09T11:16:40.812Z,12.86
2019-02-09T11:17:40.804Z,13.77
2019-02-09T11:18:40.790Z,13.19
2019-02-09T11:19:40.782Z,13.10
2019-02-09T11:20:40.794Z,12.52
2019-02-09T11:21:40.761Z,12.62
2019-02-09T11:22:40.749Z,12.56
2019-02-09T11:23:40.737Z,12.02
2019-02-09T11:24:40.729Z,11.75
2019-02-09T11:25:40.743Z,11.82
2019-02-09T11:26:40.704Z,11.55
2019-02-09T11:27:40.694Z,11.52
2019-02-09T11:28:40.682Z,11.58
2019-02-09T11:29:40.673Z,11.79
2019-02-09T11:30:40.687Z,11.95
2019-02-09T11:31:40.674Z,12.09
2019-02-09T11:32:40.639Z,12.20
2019-02-09T11:33:40.640Z,12.67
2019-02-09T11:34:40.618Z,12.38
2019-02-09T11:35:40.638Z,12.20
2019-02-09T11:36:40.599Z,11.75
2019-02-09T11:37:40.590Z,11.58
2019-02-09T11:38:40.575Z,11.64
2019-02-09T11:39:40.565Z,12.53
2019-02-09T11:40:40.596Z,13.04
2019-02-09T11:41:40.545Z,12.52
2019-02-09T11:42:40.532Z,12.24
2019-02-09T11:43:40.520Z,12.60
2019-02-09T11:44:41.348Z,12.38
2019-02-09T11:45:40.569Z,12.10
2019-02-09T11:46:40.488Z,11.98
2019-02-09T11:47:40.479Z,11.83
2019-02-09T11:48:40.470Z,11.72
2019-02-09T11:49:40.455Z,11.61
2019-02-09T11:50:40.472Z,11.46
2019-02-09T11:51:40.432Z,11.39
2019-02-09T11:52:40.423Z,11.42
2019-02-09T11:53:40.411Z,11.40
2019-02-09T11:54:40.402Z,11.40
2019-02-09T11:55:40.419Z,11.40
2019-02-09T11:56:40.380Z,11.64
2019-02-09T11:57:40.373Z,12.32
2019-02-09T11:58:40.360Z,12.68
2019-02-09T11:59:40.350Z,12.53
2019-02-09T12:00:40.361Z,12.68
2019-02-09T12:01:40.326Z,12.57
2019-02-09T12:02:40.319Z,12.53
2019-02-09T12:03:40.305Z,12.71
2019-02-09T12:04:40.296Z,13.08
2019-02-09T12:05:40.306Z,12.90
2019-02-09T12:06:40.274Z,12.67
2019-02-09T12:07:40.262Z,12.62
2019-02-09T12:08:40.251Z,12.47
2019-02-09T12:09:40.242Z,12.24
2019-02-09T12:10:40.253Z,12.02
2019-02-09T12:11:40.221Z,11.91
2019-02-09T12:12:40.208Z,11.85
2019-02-09T12:13:40.212Z,11.72
2019-02-09T12:14:40.216Z,11.67
2019-02-09T12:15:40.196Z,11.49
2019-02-09T12:16:40.164Z,11.51
2019-02-09T12:17:40.152Z,11.51
2019-02-09T12:18:40.141Z,11.51
2019-02-09T12:19:40.131Z,11.37
2019-02-09T12:20:40.148Z,11.37
2019-02-09T12:21:40.109Z,11.35
2019-02-09T12:22:40.097Z,11.33
2019-02-09T12:23:40.093Z,11.29
2019-02-09T12:24:40.075Z,11.15
2019-02-09T12:25:40.098Z,11.11
2019-02-09T12:26:40.055Z,11.11
2019-02-09T12:27:40.046Z,11.22
2019-02-09T12:28:40.036Z,11.33
2019-02-09T12:29:40.025Z,11.32
2019-02-09T12:30:40.068Z,11.03
2019-02-09T12:31:40.000Z,11.22
2019-02-09T12:32:39.989Z,11.78
2019-02-09T12:33:39.984Z,12.04
2019-02-09T12:34:39.968Z,12.09
2019-02-09T12:35:39.988Z,11.79
2019-02-09T12:36:39.947Z,11.58
2019-02-09T12:37:39.937Z,11.65
2019-02-09T12:38:39.926Z,11.91
2019-02-09T12:39:39.914Z,12.27
2019-02-09T12:40:39.928Z,12.59
2019-02-09T12:41:39.895Z,12.75
2019-02-09T12:42:39.883Z,12.85
2019-02-09T12:43:39.872Z,12.83
2019-02-09T12:44:39.862Z,12.65
2019-02-09T12:45:39.878Z,12.29
2019-02-09T12:46:39.846Z,12.09
2019-02-09T12:47:39.827Z,12.24
2019-02-09T12:48:39.817Z,12.16
2019-02-09T12:49:39.806Z,12.14
2019-02-09T12:50:39.820Z,12.19
2019-02-09T12:51:39.786Z,12.21
2019-02-09T12:52:39.774Z,12.02
2019-02-09T12:53:39.761Z,12.27
2019-02-09T12:54:39.753Z,12.10
2019-02-09T12:55:39.766Z,12.10
2019-02-09T12:56:39.728Z,12.20
2019-02-09T12:57:39.719Z,12.54
2019-02-09T12:58:39.713Z,12.54
2019-02-09T12:59:39.698Z,12.78
2019-02-09T13:00:39.712Z,13.03
2019-02-09T13:01:39.678Z,13.12
2019-02-09T13:02:39.717Z,13.07
2019-02-09T13:03:39.672Z,13.30
2019-02-09T13:04:39.706Z,13.85
2019-02-09T13:05:39.781Z,14.17
2019-02-09T13:06:39.697Z,13.59
2019-02-09T13:07:39.673Z,13.17
2019-02-09T13:08:39.616Z,12.97
2019-02-09T13:09:39.637Z,12.82
2019-02-09T13:10:39.706Z,12.50
2019-02-09T13:11:39.616Z,12.20
2019-02-09T13:12:39.626Z,12.28
2019-02-09T13:13:39.615Z,12.02